LJCE METAR and TAF | Updated Today

LJCE METAR

Cerklje Airport

Observation time: 7 min. ago

LJCE 252030Z AUTO 10007KT 9999 NSC 17/13 Q1019

Need help? Read our tutorial on how to read METARs or read the parsed version below.

Cerklje Airport (LJCE) METAR

  • Weather conditions on Wed, 25 May 2022 20:30:00 +0000 (7 min. ago):
  • Present conditions: Dry
  • Clouds: No significant clouds are observed
  • Visibility: Greater than 10 km
  • Wind: 100 degrees at 7 knots
  • Temperature: 17 celsius
  • Dew point: 13 celsius
  • Pressure: 1019 millibars
  • Remarks: None


Useful to know...

LJCE TAF

Cerklje Airport

TAF LJCE 251700Z 2518/2603 09005KT CAVOK
Observation time: 3:37 hr. ago
Need help? Read our tutorial on how to read TAFs or read the parsed version below.

Parsed version of TAF for Cerklje Airport (LJCE)

  • From 25 May at 18:00 UTC, to day 26 of the month at 03:00 UTC
  • Visibility: Greater than 10 km
  • Wind: 90 degrees at 5